sensor_id;sensor_type;location;lat;lon;timestamp;P1;durP1;ratioP1;P2;durP2;ratioP2
15944;SDS011;30172;48.832;8.732;2022-10-10T05:12:29;7.63;;;5.03;;
15944;SDS011;30172;48.832;8.732;2022-10-10T05:15:01;7.33;;;4.57;;
15944;SDS011;30172;48.832;8.732;2022-10-10T05:17:26;6.13;;;4.20;;
15944;SDS011;30172;48.832;8.732;2022-10-10T05:19:51;6.03;;;5.00;;
15944;SDS011;30172;48.832;8.732;2022-10-10T05:22:17;6.67;;;4.77;;
15944;SDS011;30172;48.832;8.732;2022-10-10T05:24:43;9.93;;;4.87;;
15944;SDS011;30172;48.832;8.732;2022-10-10T05:27:08;7.60;;;3.93;;
15944;SDS011;30172;48.832;8.732;2022-10-10T05:29:33;8.00;;;4.53;;
15944;SDS011;30172;48.832;8.732;2022-10-10T05:31:58;6.57;;;3.90;;
15944;SDS011;30172;48.832;8.732;2022-10-10T05:34:24;7.77;;;4.47;;
15944;SDS011;30172;48.832;8.732;2022-10-10T05:36:49;7.13;;;4.60;;
15944;SDS011;30172;48.832;8.732;2022-10-10T05:39:14;6.07;;;4.20;;
15944;SDS011;30172;48.832;8.732;2022-10-10T05:41:40;6.73;;;4.30;;
15944;SDS011;30172;48.832;8.732;2022-10-10T05:44:05;5.93;;;4.07;;
15944;SDS011;30172;48.832;8.732;2022-10-10T05:46:30;6.43;;;3.97;;
15944;SDS011;30172;48.832;8.732;2022-10-10T05:48:56;6.77;;;4.00;;
15944;SDS011;30172;48.832;8.732;2022-10-10T05:51:21;6.23;;;4.37;;
15944;SDS011;30172;48.832;8.732;2022-10-10T05:53:47;9.50;;;4.87;;
15944;SDS011;30172;48.832;8.732;2022-10-10T05:56:12;5.63;;;3.87;;
15944;SDS011;30172;48.832;8.732;2022-10-10T05:58:40;5.83;;;4.20;;
15944;SDS011;30172;48.832;8.732;2022-10-10T06:01:06;7.13;;;4.27;;
15944;SDS011;30172;48.832;8.732;2022-10-10T06:03:32;9.23;;;4.50;;
15944;SDS011;30172;48.832;8.732;2022-10-10T06:05:58;5.23;;;3.47;;
15944;SDS011;30172;48.832;8.732;2022-10-10T06:53:08;5.77;;;3.60;;
15944;SDS011;30172;48.832;8.732;2022-10-10T06:55:33;5.60;;;3.93;;
15944;SDS011;30172;48.832;8.732;2022-10-10T06:58:02;6.90;;;3.70;;
15944;SDS011;30172;48.832;8.732;2022-10-10T07:00:27;6.23;;;3.67;;
15944;SDS011;30172;48.832;8.732;2022-10-10T07:02:52;7.87;;;4.07;;
15944;SDS011;30172;48.832;8.732;2022-10-10T07:05:18;5.97;;;3.73;;
15944;SDS011;30172;48.832;8.732;2022-10-10T07:07:44;7.03;;;3.43;;
15944;SDS011;30172;48.832;8.732;2022-10-10T07:10:10;5.43;;;3.20;;
15944;SDS011;30172;48.832;8.732;2022-10-10T07:12:36;6.67;;;3.33;;
15944;SDS011;30172;48.832;8.732;2022-10-10T07:15:03;4.73;;;3.30;;
15944;SDS011;30172;48.832;8.732;2022-10-10T07:17:29;8.23;;;3.13;;
15944;SDS011;30172;48.832;8.732;2022-10-10T07:19:55;5.17;;;3.10;;
15944;SDS011;30172;48.832;8.732;2022-10-10T07:22:20;6.33;;;3.27;;
15944;SDS011;30172;48.832;8.732;2022-10-10T07:24:45;6.00;;;3.83;;
15944;SDS011;30172;48.832;8.732;2022-10-10T07:27:11;9.83;;;3.80;;
15944;SDS011;30172;48.832;8.732;2022-10-10T07:29:36;5.47;;;3.03;;
15944;SDS011;30172;48.832;8.732;2022-10-10T07:32:01;7.03;;;3.20;;
15944;SDS011;30172;48.832;8.732;2022-10-10T07:34:27;6.83;;;2.93;;
15944;SDS011;30172;48.832;8.732;2022-10-10T07:36:52;4.03;;;3.27;;
15944;SDS011;30172;48.832;8.732;2022-10-10T07:39:18;6.97;;;3.10;;
15944;SDS011;30172;48.832;8.732;2022-10-10T07:41:47;6.03;;;3.13;;
15944;SDS011;30172;48.832;8.732;2022-10-10T07:44:13;5.60;;;3.00;;
15944;SDS011;30172;48.832;8.732;2022-10-10T07:46:38;4.63;;;2.70;;
15944;SDS011;30172;48.832;8.732;2022-10-10T07:49:04;4.60;;;2.67;;
15944;SDS011;30172;48.832;8.732;2022-10-10T07:51:29;3.80;;;2.53;;
15944;SDS011;30172;48.832;8.732;2022-10-10T07:53:54;3.83;;;2.67;;
15944;SDS011;30172;48.832;8.732;2022-10-10T07:56:20;4.47;;;2.97;;
15944;SDS011;30172;48.832;8.732;2022-10-10T07:58:45;7.05;;;3.20;;
15944;SDS011;30172;48.832;8.732;2022-10-10T08:01:11;4.17;;;3.10;;
15944;SDS011;30172;48.832;8.732;2022-10-10T08:03:37;6.07;;;2.87;;
15944;SDS011;30172;48.832;8.732;2022-10-10T08:06:07;13.30;;;3.45;;
15944;SDS011;30172;48.832;8.732;2022-10-10T08:08:33;3.97;;;2.97;;
15944;SDS011;30172;48.832;8.732;2022-10-10T08:11:00;5.55;;;3.08;;
15944;SDS011;30172;48.832;8.732;2022-10-10T08:13:28;5.70;;;3.20;;
15944;SDS011;30172;48.832;8.732;2022-10-10T08:15:54;6.05;;;3.47;;
15944;SDS011;30172;48.832;8.732;2022-10-10T08:18:20;10.27;;;5.40;;
15944;SDS011;30172;48.832;8.732;2022-10-10T08:20:45;13.15;;;6.07;;
15944;SDS011;30172;48.832;8.732;2022-10-10T08:23:11;9.25;;;6.03;;
15944;SDS011;30172;48.832;8.732;2022-10-10T08:25:37;9.00;;;5.25;;
15944;SDS011;30172;48.832;8.732;2022-10-10T08:28:02;11.67;;;5.93;;
15944;SDS011;30172;48.832;8.732;2022-10-10T08:30:28;6.68;;;4.85;;
15944;SDS011;30172;48.832;8.732;2022-10-10T08:32:53;6.63;;;4.43;;
15944;SDS011;30172;48.832;8.732;2022-10-10T08:35:18;5.32;;;3.25;;
15944;SDS011;30172;48.832;8.732;2022-10-10T08:37:44;4.15;;;2.70;;
15944;SDS011;30172;48.832;8.732;2022-10-10T08:40:11;6.72;;;2.85;;
15944;SDS011;30172;48.832;8.732;2022-10-10T08:42:39;6.05;;;2.83;;
15944;SDS011;30172;48.832;8.732;2022-10-10T08:45:09;8.10;;;2.40;;
15944;SDS011;30172;48.832;8.732;2022-10-10T08:47:44;4.25;;;2.40;;
15944;SDS011;30172;48.832;8.732;2022-10-10T08:52:58;4.70;;;2.50;;
15944;SDS011;30172;48.832;8.732;2022-10-10T08:55:30;4.35;;;2.70;;
15944;SDS011;30172;48.832;8.732;2022-10-10T09:00:48;4.68;;;3.00;;
15944;SDS011;30172;48.832;8.732;2022-10-10T09:03:26;6.35;;;3.05;;
15944;SDS011;30172;48.832;8.732;2022-10-10T09:06:06;5.45;;;3.10;;
15944;SDS011;30172;48.832;8.732;2022-10-10T09:08:49;10.43;;;2.92;;
15944;SDS011;30172;48.832;8.732;2022-10-10T09:17:16;11.52;;;3.22;;
15944;SDS011;30172;48.832;8.732;2022-10-10T09:19:52;4.43;;;3.28;;
15944;SDS011;30172;48.832;8.732;2022-10-10T09:22:30;7.45;;;2.65;;
15944;SDS011;30172;48.832;8.732;2022-10-10T09:25:20;5.60;;;3.30;;
15944;SDS011;30172;48.832;8.732;2022-10-10T09:27:48;5.20;;;3.10;;
15944;SDS011;30172;48.832;8.732;2022-10-10T09:30:19;5.55;;;3.28;;
15944;SDS011;30172;48.832;8.732;2022-10-10T09:32:47;5.38;;;3.05;;
15944;SDS011;30172;48.832;8.732;2022-10-10T09:35:26;4.15;;;2.85;;
15944;SDS011;30172;48.832;8.732;2022-10-10T09:37:54;3.45;;;3.13;;
15944;SDS011;30172;48.832;8.732;2022-10-10T09:40:29;5.35;;;3.13;;
15944;SDS011;30172;48.832;8.732;2022-10-10T09:42:57;4.70;;;2.95;;
15944;SDS011;30172;48.832;8.732;2022-10-10T09:45:27;5.63;;;3.22;;
15944;SDS011;30172;48.832;8.732;2022-10-10T09:47:54;3.92;;;3.22;;
15944;SDS011;30172;48.832;8.732;2022-10-10T09:50:20;7.60;;;3.53;;
15944;SDS011;30172;48.832;8.732;2022-10-10T09:52:46;8.35;;;3.42;;
15944;SDS011;30172;48.832;8.732;2022-10-10T09:55:25;6.45;;;3.42;;
15944;SDS011;30172;48.832;8.732;2022-10-10T09:57:54;6.60;;;3.35;;
15944;SDS011;30172;48.832;8.732;2022-10-10T10:00:32;7.18;;;2.92;;
15944;SDS011;30172;48.832;8.732;2022-10-10T10:03:04;4.70;;;3.38;;
15944;SDS011;30172;48.832;8.732;2022-10-10T10:05:36;3.47;;;3.17;;
15944;SDS011;30172;48.832;8.732;2022-10-10T10:08:01;7.35;;;2.67;;
15944;SDS011;30172;48.832;8.732;2022-10-10T10:10:27;6.78;;;2.83;;
15944;SDS011;30172;48.832;8.732;2022-10-10T10:12:54;5.22;;;2.65;;
15944;SDS011;30172;48.832;8.732;2022-10-10T10:15:27;9.00;;;3.17;;
15944;SDS011;30172;48.832;8.732;2022-10-10T10:18:08;7.53;;;2.75;;
15944;SDS011;30172;48.832;8.732;2022-10-10T10:20:36;4.97;;;2.55;;
15944;SDS011;30172;48.832;8.732;2022-10-10T10:23:04;6.13;;;3.05;;
15944;SDS011;30172;48.832;8.732;2022-10-10T10:28:12;5.90;;;2.35;;
15944;SDS011;30172;48.832;8.732;2022-10-10T10:30:39;7.90;;;2.95;;
15944;SDS011;30172;48.832;8.732;2022-10-10T10:33:18;9.40;;;2.80;;
15944;SDS011;30172;48.832;8.732;2022-10-10T10:38:56;13.35;;;2.92;;
15944;SDS011;30172;48.832;8.732;2022-10-10T10:41:54;12.25;;;2.97;;
15944;SDS011;30172;48.832;8.732;2022-10-10T10:44:31;9.10;;;3.08;;
15944;SDS011;30172;48.832;8.732;2022-10-10T10:52:55;14.60;;;2.85;;
15944;SDS011;30172;48.832;8.732;2022-10-10T10:55:24;14.75;;;3.75;;
15944;SDS011;30172;48.832;8.732;2022-10-10T11:00:42;12.23;;;2.95;;
15944;SDS011;30172;48.832;8.732;2022-10-10T11:03:24;11.15;;;3.05;;
15944;SDS011;30172;48.832;8.732;2022-10-10T11:06:21;10.75;;;2.80;;
15944;SDS011;30172;48.832;8.732;2022-10-10T11:08:45;14.32;;;3.90;;
15944;SDS011;30172;48.832;8.732;2022-10-10T11:11:28;12.25;;;3.10;;
15944;SDS011;30172;48.832;8.732;2022-10-10T11:14:06;9.60;;;3.70;;
15944;SDS011;30172;48.832;8.732;2022-10-10T11:16:53;14.27;;;3.50;;
15944;SDS011;30172;48.832;8.732;2022-10-10T11:21:57;14.23;;;3.67;;
15944;SDS011;30172;48.832;8.732;2022-10-10T11:24:42;10.65;;;3.22;;
15944;SDS011;30172;48.832;8.732;2022-10-10T11:27:12;10.80;;;2.97;;
15944;SDS011;30172;48.832;8.732;2022-10-10T11:29:47;12.35;;;2.78;;
15944;SDS011;30172;48.832;8.732;2022-10-10T11:32:25;13.23;;;3.35;;
15944;SDS011;30172;48.832;8.732;2022-10-10T11:35:01;9.90;;;3.13;;
15944;SDS011;30172;48.832;8.732;2022-10-10T11:37:31;9.95;;;2.70;;
15944;SDS011;30172;48.832;8.732;2022-10-10T11:40:00;9.88;;;3.25;;
15944;SDS011;30172;48.832;8.732;2022-10-10T11:42:35;7.63;;;2.63;;
15944;SDS011;30172;48.832;8.732;2022-10-10T11:45:23;11.77;;;3.08;;
15944;SDS011;30172;48.832;8.732;2022-10-10T11:50:40;12.70;;;2.95;;
15944;SDS011;30172;48.832;8.732;2022-10-10T11:53:12;9.50;;;3.65;;
15944;SDS011;30172;48.832;8.732;2022-10-10T11:58:35;12.93;;;3.33;;
15944;SDS011;30172;48.832;8.732;2022-10-10T12:01:21;11.68;;;2.92;;
15944;SDS011;30172;48.832;8.732;2022-10-10T12:03:50;11.82;;;2.92;;
15944;SDS011;30172;48.832;8.732;2022-10-10T12:06:18;9.48;;;3.05;;
15944;SDS011;30172;48.832;8.732;2022-10-10T12:08:49;9.10;;;2.65;;
15944;SDS011;30172;48.832;8.732;2022-10-10T12:11:21;10.57;;;2.80;;
15944;SDS011;30172;48.832;8.732;2022-10-10T12:13:52;8.73;;;2.72;;
15944;SDS011;30172;48.832;8.732;2022-10-10T12:16:20;7.22;;;2.88;;
15944;SDS011;30172;48.832;8.732;2022-10-10T12:19:03;6.78;;;3.20;;
15944;SDS011;30172;48.832;8.732;2022-10-10T12:21:30;14.88;;;3.10;;
15944;SDS011;30172;48.832;8.732;2022-10-10T12:24:07;7.32;;;2.90;;
15944;SDS011;30172;48.832;8.732;2022-10-10T12:37:30;8.50;;;2.90;;
15944;SDS011;30172;48.832;8.732;2022-10-10T12:52:57;9.85;;;3.28;;
15944;SDS011;30172;48.832;8.732;2022-10-10T12:55:25;7.68;;;3.08;;
15944;SDS011;30172;48.832;8.732;2022-10-10T12:57:57;10.68;;;3.38;;
15944;SDS011;30172;48.832;8.732;2022-10-10T13:02:50;8.15;;;3.30;;
15944;SDS011;30172;48.832;8.732;2022-10-10T13:05:20;9.13;;;2.85;;
15944;SDS011;30172;48.832;8.732;2022-10-10T13:07:49;10.20;;;2.90;;
15944;SDS011;30172;48.832;8.732;2022-10-10T13:10:20;11.50;;;3.47;;
15944;SDS011;30172;48.832;8.732;2022-10-10T13:13:03;8.77;;;3.28;;
15944;SDS011;30172;48.832;8.732;2022-10-10T13:15:33;10.70;;;3.10;;
15944;SDS011;30172;48.832;8.732;2022-10-10T13:17:59;11.70;;;3.45;;
15944;SDS011;30172;48.832;8.732;2022-10-10T13:23:06;12.85;;;3.35;;
15944;SDS011;30172;48.832;8.732;2022-10-10T13:25:36;13.60;;;2.92;;
15944;SDS011;30172;48.832;8.732;2022-10-10T13:28:02;15.02;;;3.35;;
15944;SDS011;30172;48.832;8.732;2022-10-10T13:30:28;10.85;;;3.33;;
15944;SDS011;30172;48.832;8.732;2022-10-10T13:32:53;12.20;;;3.65;;
15944;SDS011;30172;48.832;8.732;2022-10-10T13:35:22;15.07;;;3.40;;
15944;SDS011;30172;48.832;8.732;2022-10-10T13:37:57;11.82;;;3.13;;
15944;SDS011;30172;48.832;8.732;2022-10-10T13:40:24;14.65;;;3.47;;
15944;SDS011;30172;48.832;8.732;2022-10-10T13:42:50;14.85;;;3.40;;
15944;SDS011;30172;48.832;8.732;2022-10-10T13:58:40;10.57;;;3.30;;
15944;SDS011;30172;48.832;8.732;2022-10-10T14:03:55;14.93;;;3.35;;
15944;SDS011;30172;48.832;8.732;2022-10-10T14:06:24;11.98;;;3.72;;
15944;SDS011;30172;48.832;8.732;2022-10-10T14:08:50;15.40;;;3.25;;
15944;SDS011;30172;48.832;8.732;2022-10-10T14:11:21;15.00;;;3.28;;
15944;SDS011;30172;48.832;8.732;2022-10-10T14:13:52;13.18;;;3.35;;
15944;SDS011;30172;48.832;8.732;2022-10-10T14:16:23;15.48;;;3.65;;
15944;SDS011;30172;48.832;8.732;2022-10-10T14:18:49;11.98;;;3.47;;
15944;SDS011;30172;48.832;8.732;2022-10-10T14:21:14;14.63;;;3.65;;
15944;SDS011;30172;48.832;8.732;2022-10-10T14:23:40;9.48;;;2.90;;
15944;SDS011;30172;48.832;8.732;2022-10-10T14:26:06;17.25;;;4.53;;
15944;SDS011;30172;48.832;8.732;2022-10-10T14:28:34;17.85;;;3.95;;
15944;SDS011;30172;48.832;8.732;2022-10-10T14:31:01;11.70;;;3.72;;
15944;SDS011;30172;48.832;8.732;2022-10-10T14:33:28;15.43;;;3.92;;
15944;SDS011;30172;48.832;8.732;2022-10-10T14:35:53;12.85;;;3.50;;
15944;SDS011;30172;48.832;8.732;2022-10-10T14:38:20;11.57;;;3.00;;
15944;SDS011;30172;48.832;8.732;2022-10-10T14:40:47;11.40;;;3.10;;
15944;SDS011;30172;48.832;8.732;2022-10-10T14:43:13;14.45;;;3.60;;
15944;SDS011;30172;48.832;8.732;2022-10-10T14:45:39;13.98;;;3.40;;
15944;SDS011;30172;48.832;8.732;2022-10-10T14:48:04;10.20;;;3.72;;
15944;SDS011;30172;48.832;8.732;2022-10-10T14:50:31;15.05;;;3.38;;
15944;SDS011;30172;48.832;8.732;2022-10-10T14:52:57;12.38;;;3.88;;
15944;SDS011;30172;48.832;8.732;2022-10-10T14:55:23;12.13;;;3.35;;
15944;SDS011;30172;48.832;8.732;2022-10-10T14:57:48;10.85;;;3.00;;
15944;SDS011;30172;48.832;8.732;2022-10-10T15:00:14;9.80;;;3.17;;
15944;SDS011;30172;48.832;8.732;2022-10-10T15:02:44;10.88;;;2.67;;
15944;SDS011;30172;48.832;8.732;2022-10-10T15:05:10;11.20;;;3.55;;
15944;SDS011;30172;48.832;8.732;2022-10-10T15:07:36;9.40;;;2.83;;
15944;SDS011;30172;48.832;8.732;2022-10-10T15:10:01;14.20;;;3.55;;
15944;SDS011;30172;48.832;8.732;2022-10-10T15:12:27;10.38;;;3.38;;
15944;SDS011;30172;48.832;8.732;2022-10-10T15:14:53;20.75;;;3.90;;
15944;SDS011;30172;48.832;8.732;2022-10-10T15:17:18;11.38;;;3.58;;
15944;SDS011;30172;48.832;8.732;2022-10-10T15:19:43;13.90;;;3.42;;
15944;SDS011;30172;48.832;8.732;2022-10-10T15:22:09;13.77;;;4.10;;
15944;SDS011;30172;48.832;8.732;2022-10-10T15:24:34;10.23;;;3.67;;
15944;SDS011;30172;48.832;8.732;2022-10-10T15:26:59;11.40;;;4.18;;
15944;SDS011;30172;48.832;8.732;2022-10-10T15:29:25;14.55;;;4.00;;
15944;SDS011;30172;48.832;8.732;2022-10-10T15:31:50;13.68;;;4.50;;
15944;SDS011;30172;48.832;8.732;2022-10-10T15:34:17;14.40;;;4.60;;
15944;SDS011;30172;48.832;8.732;2022-10-10T15:36:43;8.10;;;3.55;;
15944;SDS011;30172;48.832;8.732;2022-10-10T15:39:09;11.15;;;3.80;;
15944;SDS011;30172;48.832;8.732;2022-10-10T15:41:35;7.18;;;3.13;;
15944;SDS011;30172;48.832;8.732;2022-10-10T15:44:00;10.43;;;3.90;;
15944;SDS011;30172;48.832;8.732;2022-10-10T15:46:27;11.50;;;3.70;;
15944;SDS011;30172;48.832;8.732;2022-10-10T15:48:53;17.42;;;3.78;;
15944;SDS011;30172;48.832;8.732;2022-10-10T15:51:18;9.02;;;3.13;;
15944;SDS011;30172;48.832;8.732;2022-10-10T15:53:44;11.20;;;3.65;;
15944;SDS011;30172;48.832;8.732;2022-10-10T15:56:11;9.48;;;3.17;;
15944;SDS011;30172;48.832;8.732;2022-10-10T15:58:38;10.88;;;3.45;;
15944;SDS011;30172;48.832;8.732;2022-10-10T16:01:08;14.52;;;5.00;;
15944;SDS011;30172;48.832;8.732;2022-10-10T16:03:34;9.32;;;3.92;;
15944;SDS011;30172;48.832;8.732;2022-10-10T16:06:00;13.85;;;4.70;;
15944;SDS011;30172;48.832;8.732;2022-10-10T16:08:26;11.15;;;3.83;;
15944;SDS011;30172;48.832;8.732;2022-10-10T16:10:51;10.65;;;3.70;;
15944;SDS011;30172;48.832;8.732;2022-10-10T16:13:17;9.90;;;3.72;;
15944;SDS011;30172;48.832;8.732;2022-10-10T16:15:42;11.50;;;4.20;;
15944;SDS011;30172;48.832;8.732;2022-10-10T16:18:07;9.73;;;4.40;;
15944;SDS011;30172;48.832;8.732;2022-10-10T16:20:32;9.82;;;4.20;;
15944;SDS011;30172;48.832;8.732;2022-10-10T16:22:58;11.73;;;4.43;;
15944;SDS011;30172;48.832;8.732;2022-10-10T16:25:23;9.40;;;5.05;;
15944;SDS011;30172;48.832;8.732;2022-10-10T16:27:49;13.32;;;4.32;;
15944;SDS011;30172;48.832;8.732;2022-10-10T16:30:14;9.25;;;4.72;;
15944;SDS011;30172;48.832;8.732;2022-10-10T16:32:40;11.30;;;4.55;;
15944;SDS011;30172;48.832;8.732;2022-10-10T16:35:05;9.60;;;4.88;;
15944;SDS011;30172;48.832;8.732;2022-10-10T16:37:31;15.00;;;5.13;;
15944;SDS011;30172;48.832;8.732;2022-10-10T16:39:56;13.07;;;5.63;;
15944;SDS011;30172;48.832;8.732;2022-10-10T16:42:21;14.63;;;6.70;;
15944;SDS011;30172;48.832;8.732;2022-10-10T16:44:47;14.32;;;8.00;;
15944;SDS011;30172;48.832;8.732;2022-10-10T16:47:12;21.33;;;15.25;;
15944;SDS011;30172;48.832;8.732;2022-10-10T16:55:44;33.58;;;24.15;;
15944;SDS011;30172;48.832;8.732;2022-10-10T16:58:18;29.50;;;20.35;;
15944;SDS011;30172;48.832;8.732;2022-10-10T17:00:52;16.17;;;11.45;;
15944;SDS011;30172;48.832;8.732;2022-10-10T17:03:41;16.27;;;8.35;;
15944;SDS011;30172;48.832;8.732;2022-10-10T17:06:17;15.57;;;7.57;;
15944;SDS011;30172;48.832;8.732;2022-10-10T17:08:49;18.27;;;8.85;;
15944;SDS011;30172;48.832;8.732;2022-10-10T17:11:22;11.82;;;6.22;;
15944;SDS011;30172;48.832;8.732;2022-10-10T17:13:53;16.55;;;5.40;;
15944;SDS011;30172;48.832;8.732;2022-10-10T17:16:24;15.95;;;4.55;;
15944;SDS011;30172;48.832;8.732;2022-10-10T17:18:53;12.70;;;4.55;;
15944;SDS011;30172;48.832;8.732;2022-10-10T17:21:19;10.80;;;4.28;;
15944;SDS011;30172;48.832;8.732;2022-10-10T17:23:47;8.85;;;3.70;;
15944;SDS011;30172;48.832;8.732;2022-10-10T17:26:14;5.80;;;3.80;;
15944;SDS011;30172;48.832;8.732;2022-10-10T17:28:41;11.23;;;4.65;;
15944;SDS011;30172;48.832;8.732;2022-10-10T17:31:07;9.52;;;5.15;;
15944;SDS011;30172;48.832;8.732;2022-10-10T17:33:35;10.40;;;5.38;;
15944;SDS011;30172;48.832;8.732;2022-10-10T17:36:04;17.00;;;4.05;;
15944;SDS011;30172;48.832;8.732;2022-10-10T17:38:31;9.85;;;4.07;;
15944;SDS011;30172;48.832;8.732;2022-10-10T17:40:57;6.70;;;2.75;;
15944;SDS011;30172;48.832;8.732;2022-10-10T17:43:22;5.78;;;2.92;;
15944;SDS011;30172;48.832;8.732;2022-10-10T17:45:48;6.45;;;3.22;;
15944;SDS011;30172;48.832;8.732;2022-10-10T17:48:13;10.38;;;6.00;;
15944;SDS011;30172;48.832;8.732;2022-10-10T17:50:39;13.35;;;9.43;;
15944;SDS011;30172;48.832;8.732;2022-10-10T17:53:04;7.13;;;3.85;;
15944;SDS011;30172;48.832;8.732;2022-10-10T17:55:29;8.15;;;3.85;;
15944;SDS011;30172;48.832;8.732;2022-10-10T17:57:55;9.40;;;3.17;;
15944;SDS011;30172;48.832;8.732;2022-10-10T18:00:20;8.73;;;3.50;;
15944;SDS011;30172;48.832;8.732;2022-10-10T18:02:48;9.10;;;3.15;;
15944;SDS011;30172;48.832;8.732;2022-10-10T18:05:14;8.93;;;4.05;;
15944;SDS011;30172;48.832;8.732;2022-10-10T18:07:39;7.63;;;3.13;;
15944;SDS011;30172;48.832;8.732;2022-10-10T18:10:06;10.75;;;3.60;;
15944;SDS011;30172;48.832;8.732;2022-10-10T18:12:31;8.38;;;3.67;;
15944;SDS011;30172;48.832;8.732;2022-10-10T18:14:56;9.27;;;3.40;;
15944;SDS011;30172;48.832;8.732;2022-10-10T18:17:22;10.93;;;3.35;;
15944;SDS011;30172;48.832;8.732;2022-10-10T18:19:47;13.13;;;4.35;;
15944;SDS011;30172;48.832;8.732;2022-10-10T18:22:13;11.85;;;3.38;;
15944;SDS011;30172;48.832;8.732;2022-10-10T18:24:38;11.57;;;4.00;;
15944;SDS011;30172;48.832;8.732;2022-10-10T18:27:04;10.70;;;3.92;;
15944;SDS011;30172;48.832;8.732;2022-10-10T18:29:29;9.80;;;3.80;;
15944;SDS011;30172;48.832;8.732;2022-10-10T18:31:54;12.32;;;3.88;;
15944;SDS011;30172;48.832;8.732;2022-10-10T18:34:20;10.00;;;4.10;;
15944;SDS011;30172;48.832;8.732;2022-10-10T18:36:46;11.50;;;3.97;;
15944;SDS011;30172;48.832;8.732;2022-10-10T18:39:12;8.85;;;3.80;;
15944;SDS011;30172;48.832;8.732;2022-10-10T18:41:39;9.65;;;3.78;;
15944;SDS011;30172;48.832;8.732;2022-10-10T18:44:05;5.75;;;4.03;;
15944;SDS011;30172;48.832;8.732;2022-10-10T18:46:32;13.02;;;5.32;;
15944;SDS011;30172;48.832;8.732;2022-10-10T18:49:04;9.30;;;4.70;;
15944;SDS011;30172;48.832;8.732;2022-10-10T18:51:30;11.93;;;5.45;;
15944;SDS011;30172;48.832;8.732;2022-10-10T18:53:57;9.10;;;3.85;;
15944;SDS011;30172;48.832;8.732;2022-10-10T18:56:26;13.07;;;4.82;;
15944;SDS011;30172;48.832;8.732;2022-10-10T18:58:54;13.77;;;4.97;;
15944;SDS011;30172;48.832;8.732;2022-10-10T19:01:35;18.20;;;5.78;;
15944;SDS011;30172;48.832;8.732;2022-10-10T19:04:04;12.63;;;4.82;;
15944;SDS011;30172;48.832;8.732;2022-10-10T19:06:33;11.82;;;4.50;;
15944;SDS011;30172;48.832;8.732;2022-10-10T19:09:04;12.57;;;4.80;;
15944;SDS011;30172;48.832;8.732;2022-10-10T19:11:37;9.15;;;4.30;;
15944;SDS011;30172;48.832;8.732;2022-10-10T19:14:04;10.17;;;3.83;;
15944;SDS011;30172;48.832;8.732;2022-10-10T19:16:31;11.33;;;4.50;;
15944;SDS011;30172;48.832;8.732;2022-10-10T19:18:59;10.98;;;5.18;;
15944;SDS011;30172;48.832;8.732;2022-10-10T19:21:26;7.82;;;4.28;;
15944;SDS011;30172;48.832;8.732;2022-10-10T19:23:56;9.48;;;5.00;;
15944;SDS011;30172;48.832;8.732;2022-10-10T19:26:25;16.23;;;5.80;;
15944;SDS011;30172;48.832;8.732;2022-10-10T19:28:57;19.73;;;7.05;;
15944;SDS011;30172;48.832;8.732;2022-10-10T19:31:22;15.32;;;6.15;;
15944;SDS011;30172;48.832;8.732;2022-10-10T19:33:49;18.77;;;8.18;;
15944;SDS011;30172;48.832;8.732;2022-10-10T19:36:15;18.83;;;9.65;;
15944;SDS011;30172;48.832;8.732;2022-10-10T19:38:40;15.73;;;8.32;;
15944;SDS011;30172;48.832;8.732;2022-10-10T19:41:09;13.87;;;8.13;;
15944;SDS011;30172;48.832;8.732;2022-10-10T19:43:39;15.67;;;8.60;;
15944;SDS011;30172;48.832;8.732;2022-10-10T19:46:05;13.27;;;7.20;;
15944;SDS011;30172;48.832;8.732;2022-10-10T19:48:31;18.57;;;8.77;;
15944;SDS011;30172;48.832;8.732;2022-10-10T19:50:57;15.33;;;6.50;;
15944;SDS011;30172;48.832;8.732;2022-10-10T19:53:23;14.43;;;6.20;;
15944;SDS011;30172;48.832;8.732;2022-10-10T19:55:55;18.37;;;6.30;;
15944;SDS011;30172;48.832;8.732;2022-10-10T19:58:27;16.83;;;5.70;;
15944;SDS011;30172;48.832;8.732;2022-10-10T20:00:53;13.27;;;5.45;;
15944;SDS011;30172;48.832;8.732;2022-10-10T20:03:18;13.43;;;5.80;;
15944;SDS011;30172;48.832;8.732;2022-10-10T20:05:44;15.55;;;5.93;;
15944;SDS011;30172;48.832;8.732;2022-10-10T20:08:09;10.07;;;5.45;;
15944;SDS011;30172;48.832;8.732;2022-10-10T20:10:38;13.63;;;5.13;;
15944;SDS011;30172;48.832;8.732;2022-10-10T20:13:04;9.75;;;4.72;;
15944;SDS011;30172;48.832;8.732;2022-10-10T20:15:38;8.10;;;4.65;;
15944;SDS011;30172;48.832;8.732;2022-10-10T20:18:07;14.68;;;5.25;;
15944;SDS011;30172;48.832;8.732;2022-10-10T20:20:32;10.93;;;4.72;;
15944;SDS011;30172;48.832;8.732;2022-10-10T20:22:59;10.93;;;4.10;;
15944;SDS011;30172;48.832;8.732;2022-10-10T20:25:25;11.97;;;5.10;;
15944;SDS011;30172;48.832;8.732;2022-10-10T20:27:50;12.48;;;4.80;;
15944;SDS011;30172;48.832;8.732;2022-10-10T20:30:18;10.98;;;4.93;;
15944;SDS011;30172;48.832;8.732;2022-10-10T20:32:43;10.02;;;4.78;;
15944;SDS011;30172;48.832;8.732;2022-10-10T20:35:11;12.25;;;5.05;;
15944;SDS011;30172;48.832;8.732;2022-10-10T20:37:42;12.95;;;4.80;;
15944;SDS011;30172;48.832;8.732;2022-10-10T20:40:10;12.60;;;6.07;;
15944;SDS011;30172;48.832;8.732;2022-10-10T20:42:35;13.50;;;4.88;;
15944;SDS011;30172;48.832;8.732;2022-10-10T20:45:01;11.07;;;4.75;;
15944;SDS011;30172;48.832;8.732;2022-10-10T20:47:26;10.52;;;4.85;;
15944;SDS011;30172;48.832;8.732;2022-10-10T20:49:51;9.77;;;5.00;;
15944;SDS011;30172;48.832;8.732;2022-10-10T20:52:17;8.75;;;5.00;;
15944;SDS011;30172;48.832;8.732;2022-10-10T20:54:42;10.57;;;5.05;;
15944;SDS011;30172;48.832;8.732;2022-10-10T20:57:07;12.75;;;4.70;;
15944;SDS011;30172;48.832;8.732;2022-10-10T20:59:32;11.55;;;5.25;;
15944;SDS011;30172;48.832;8.732;2022-10-10T21:01:58;9.65;;;5.03;;
15944;SDS011;30172;48.832;8.732;2022-10-10T21:04:23;9.50;;;4.63;;
15944;SDS011;30172;48.832;8.732;2022-10-10T21:06:48;12.07;;;4.80;;
15944;SDS011;30172;48.832;8.732;2022-10-10T21:09:14;12.23;;;4.50;;
15944;SDS011;30172;48.832;8.732;2022-10-10T21:11:39;12.10;;;4.57;;
15944;SDS011;30172;48.832;8.732;2022-10-10T21:14:05;8.87;;;4.63;;
15944;SDS011;30172;48.832;8.732;2022-10-10T21:16:32;9.43;;;4.57;;
15944;SDS011;30172;48.832;8.732;2022-10-10T21:18:59;11.53;;;4.60;;
15944;SDS011;30172;48.832;8.732;2022-10-10T21:21:24;9.85;;;4.55;;
15944;SDS011;30172;48.832;8.732;2022-10-10T21:23:51;10.97;;;4.50;;
15944;SDS011;30172;48.832;8.732;2022-10-10T21:26:18;9.73;;;4.20;;
15944;SDS011;30172;48.832;8.732;2022-10-10T21:28:44;9.27;;;4.70;;
15944;SDS011;30172;48.832;8.732;2022-10-10T21:31:12;10.03;;;4.57;;
15944;SDS011;30172;48.832;8.732;2022-10-10T21:33:38;11.47;;;4.70;;
15944;SDS011;30172;48.832;8.732;2022-10-10T21:36:03;7.55;;;4.05;;
15944;SDS011;30172;48.832;8.732;2022-10-10T21:38:28;13.68;;;4.95;;
15944;SDS011;30172;48.832;8.732;2022-10-10T21:40:55;9.13;;;4.00;;
15944;SDS011;30172;48.832;8.732;2022-10-10T21:43:20;9.47;;;4.57;;
15944;SDS011;30172;48.832;8.732;2022-10-10T21:45:45;11.97;;;5.00;;
15944;SDS011;30172;48.832;8.732;2022-10-10T21:48:11;7.57;;;4.40;;
15944;SDS011;30172;48.832;8.732;2022-10-10T21:50:37;16.30;;;5.13;;
15944;SDS011;30172;48.832;8.732;2022-10-10T21:53:03;11.03;;;4.80;;
15944;SDS011;30172;48.832;8.732;2022-10-10T21:55:30;10.53;;;4.03;;
15944;SDS011;30172;48.832;8.732;2022-10-10T21:57:55;11.80;;;4.60;;
15944;SDS011;30172;48.832;8.732;2022-10-10T22:00:20;11.90;;;4.70;;
15944;SDS011;30172;48.832;8.732;2022-10-10T22:02:46;10.00;;;4.85;;
15944;SDS011;30172;48.832;8.732;2022-10-10T22:05:12;13.13;;;5.03;;
15944;SDS011;30172;48.832;8.732;2022-10-10T22:07:38;12.97;;;4.67;;